Kings Point — WDH9083 — position and weather

sailwx.info

Track history (hours):
 
Tides and Currents Weather Stations Pressure Air Temp Water Temp Dewpoint Dewpoint Depression Visibility Wind Speed Wind Dir Waves Ship Positions

Kings Point

Owner: Vane Line Bunkering, Inc., Philadelphia, PA. More information available from US FCC via Universal Licensing System and Coast Guard Vessel Documentation Center.

Last reported at 2018-Jun-18 08:24 UTC. Time now 2018-Jun-18 09:28 UTC.
Position N 40°53' W 073°43'.

Length 33 m; draft 4 m.

Type: Tug. MMSI: 338329000.

Date/timePositionNaut miles runAvg speedWind from/ knotsBaromVisibWave heightAir tempDewpointWater temp
2018-Jun-18 08:24N 40°53' W 073°43'11 6.0
2018-Jun-18 06:36N 40°47' W 073°55'2 6.3
2018-Jun-18 06:18N 40°46' W 073°57'2 7.3
2018-Jun-18 06:01N 40°44' W 073°58'4 7.8
2018-Jun-18 05:31N 40°41' W 074°02'4 7.8
2018-Jun-18 05:01N 40°39' W 074°06'3 5.2
2018-Jun-18 04:29N 40°39' W 074°10'2 0.4
2018-Jun-18 00:01N 40°38' W 074°12'0 7.7
2018-Jun-18 00:00N 40°38' W 074°12'510.0
2018-Jun-17 23:30N 40°39' W 074°05'4 8.1
2018-Jun-17 23:01N 40°40' W 074°00'0 0.0
2018-Jun-17 22:29N 40°40' W 074°00'0 0.0
2018-Jun-17 22:00N 40°40' W 074°00'0 0.0
2018-Jun-17 21:31N 40°40' W 074°00'0 0.6
2018-Jun-17 21:01N 40°40' W 074°01'2 4.4
2018-Jun-17 20:30N 40°39' W 074°03'5 8.7
2018-Jun-17 19:58N 40°39' W 074°09'2 2.6
2018-Jun-17 19:22N 40°40' W 074°08'0 0.0
2018-Jun-17 18:58N 40°40' W 074°08'0 0.0
2018-Jun-17 18:29N 40°40' W 074°08'1 1.4
2018-Jun-17 17:59N 40°40' W 074°09'0 0.0
2018-Jun-17 17:29N 40°40' W 074°09'0 0.0
2018-Jun-17 17:01N 40°40' W 074°09'0 0.0
2018-Jun-17 16:30N 40°40' W 074°09'0 0.0
2018-Jun-17 16:00N 40°40' W 074°09'1 0.6
2018-Jun-17 14:07N 40°39' W 074°08'1 9.9
2018-Jun-17 13:58N 40°39' W 074°07'4 8.8
2018-Jun-17 13:30N 40°41' W 074°02'4 6.4
2018-Jun-17 12:57N 40°43' W 073°58'3 0.1
2018-Jun-16 16:14N 40°46' W 073°57'2 8.3
2018-Jun-16 16:00N 40°44' W 073°58'4 8.3
2018-Jun-16 15:31N 40°41' W 074°02'4 7.7
2018-Jun-16 15:01N 40°39' W 074°06'3 6.6
2018-Jun-16 14:30N 40°39' W 074°10'2 0.4
2018-Jun-16 10:04N 40°38' W 074°12'0 0.0
2018-Jun-16 10:01N 40°38' W 074°12'0 0.0
2018-Jun-16 09:30N 40°38' W 074°12'0 0.0
2018-Jun-16 08:58N 40°38' W 074°12'0 0.0
2018-Jun-16 08:20N 40°38' W 074°12'0 0.0
2018-Jun-16 07:48N 40°38' W 074°12'0 0.0
2018-Jun-16 06:59N 40°38' W 074°12'0 0.0
2018-Jun-16 06:30N 40°38' W 074°12'0 0.0
2018-Jun-16 06:00N 40°38' W 074°12'0 0.0
2018-Jun-16 05:29N 40°38' W 074°12'0 0.0
2018-Jun-16 04:51N 40°38' W 074°12'1 0.8
2018-Jun-16 03:46N 40°38' W 074°12'2 7.2
2018-Jun-16 03:30N 40°39' W 074°09'4 7.7
2018-Jun-16 03:00N 40°40' W 074°04'3 6.6
2018-Jun-16 02:31N 40°42' W 074°01'3 5.6
2018-Jun-16 02:01N 40°44' W 073°58'2 0.1
2018-Jun-15 03:07N 40°46' W 073°57'1 8.6
2018-Jun-15 03:01N 40°45' W 073°58'4 7.1
2018-Jun-15 02:31N 40°42' W 074°00'4 8.3
2018-Jun-15 02:00N 40°39' W 074°04'4 7.5
2018-Jun-15 01:31N 40°39' W 074°09'3 6.3
2018-Jun-15 00:59N 40°36' W 074°12'1 2.5
2018-Jun-15 00:28N 40°38' W 074°12'0 0.0
2018-Jun-14 23:32N 40°38' W 074°12'0 0.1
2018-Jun-14 23:28N 40°38' W 074°12'0 0.0
2018-Jun-14 22:59N 40°38' W 074°12'0 0.0
2018-Jun-14 22:30N 40°38' W 074°12'0 0.0
2018-Jun-14 21:57N 40°38' W 074°12'0 0.0
2018-Jun-14 20:56N 40°38' W 074°12'0 0.0
2018-Jun-14 20:30N 40°38' W 074°12'0 0.0
2018-Jun-14 19:59N 40°38' W 074°12'0 0.0
2018-Jun-14 19:31N 40°38' W 074°12'0 0.0
2018-Jun-14 18:59N 40°38' W 074°12'2 3.5
2018-Jun-14 18:29N 40°39' W 074°10'2 4.1
2018-Jun-14 17:57N 40°41' W 074°09'0 0.0
2018-Jun-14 17:28N 40°41' W 074°09'1 1.4
2018-Jun-14 17:01N 40°40' W 074°08'2 3.2
2018-Jun-14 16:29N 40°39' W 074°07'1 1.2
2018-Jun-14 16:00N 40°39' W 074°06'0 0.1
2018-Jun-14 15:29N 40°39' W 074°06'0 0.5
2018-Jun-14 15:01N 40°39' W 074°06'0 0.0
2018-Jun-14 14:31N 40°39' W 074°06'0 0.0
2018-Jun-14 14:01N 40°39' W 074°06'0 0.0
2018-Jun-14 13:30N 40°39' W 074°06'0 0.0
2018-Jun-14 13:00N 40°39' W 074°06'0 0.0
2018-Jun-14 12:30N 40°39' W 074°06'2 3.3
2018-Jun-14 12:00N 40°39' W 074°08'4 7.4
2018-Jun-14 11:30N 40°37' W 074°12'1 0.5
2018-Jun-14 10:17N 40°37' W 074°12'1 4.7
2018-Jun-14 10:00N 40°39' W 074°11'4 6.9
2018-Jun-14 09:29N 40°39' W 074°07'1 2.7
2018-Jun-14 09:01N 40°39' W 074°05'0 0.0
2018-Jun-14 08:30N 40°39' W 074°05'0 0.0
2018-Jun-14 07:58N 40°39' W 074°05'0 0.0
2018-Jun-14 07:30N 40°39' W 074°05'0 0.0
2018-Jun-14 07:01N 40°39' W 074°05'1 1.8
2018-Jun-14 06:31N 40°40' W 074°04'1 2.5
2018-Jun-14 06:00N 40°39' W 074°05'1 2.5
2018-Jun-14 05:31N 40°40' W 074°05'0 0.5
2018-Jun-14 05:00N 40°40' W 074°05'0 0.0
2018-Jun-14 04:30N 40°40' W 074°05'0 0.0
2018-Jun-14 04:01N 40°40' W 074°05'0 0.0
2018-Jun-14 03:30N 40°40' W 074°05'0 0.0
2018-Jun-14 03:00N 40°40' W 074°05'0 0.0
2018-Jun-14 02:30N 40°40' W 074°05'0 0.0
2018-Jun-14 02:01N 40°40' W 074°05'0 0.0
2018-Jun-14 01:31N 40°40' W 074°05'0 0.0
2018-Jun-14 01:00N 40°40' W 074°05'0 0.0
2018-Jun-14 00:31N 40°40' W 074°05'0 0.0
2018-Jun-14 00:00N 40°40' W 074°05'0 0.0
2018-Jun-13 23:31N 40°40' W 074°05'0 0.5
2018-Jun-13 23:00N 40°40' W 074°05'1 1.7
2018-Jun-13 22:31N 40°39' W 074°04'0 0.9
2018-Jun-13 22:00N 40°39' W 074°05'1 2.0
2018-Jun-13 21:30N 40°40' W 074°05'0 0.0
2018-Jun-13 21:01N 40°40' W 074°05'0 0.0
2018-Jun-13 20:31N 40°40' W 074°05'0 0.0
2018-Jun-13 20:01N 40°40' W 074°05'0 0.0
2018-Jun-13 19:30N 40°40' W 074°05'0 0.0
2018-Jun-13 19:00N 40°40' W 074°05'0 0.0
2018-Jun-13 18:31N 40°40' W 074°05'0 0.0
2018-Jun-13 18:01N 40°40' W 074°05'1 1.8
2018-Jun-13 17:31N 40°39' W 074°05'1 1.4
2018-Jun-13 17:01N 40°39' W 074°04'3 6.0
2018-Jun-13 16:31N 40°40' W 074°01'0 0.2
2018-Jun-13 16:01N 40°40' W 074°00'2 3.3
2018-Jun-13 15:30N 40°39' W 074°02'2 4.9
2018-Jun-13 15:00N 40°39' W 074°05'3 5.6
2018-Jun-13 14:30N 40°41' W 074°02'4 8.4
2018-Jun-13 14:00N 40°39' W 074°07'2 3.6
2018-Jun-13 13:29N 40°40' W 074°08'0 0.1
2018-Jun-13 13:01N 40°40' W 074°08'3 5.2
2018-Jun-13 12:30N 40°39' W 074°05'4 8.3
2018-Jun-13 12:01N 40°40' W 074°00'0 0.6
2018-Jun-13 11:31N 40°40' W 074°01'1 1.0
2018-Jun-13 11:01N 40°40' W 074°01'3 6.2
2018-Jun-13 10:30N 40°43' W 073°59'3 6.5
2018-Jun-13 10:01N 40°46' W 073°57'0 0.0
2018-Jun-12 12:37N 40°46' W 073°57'1 5.7
2018-Jun-12 12:30N 40°45' W 073°58'4 7.9
2018-Jun-12 12:00N 40°42' W 074°00'4 7.0
2018-Jun-12 11:30N 40°39' W 074°03'0 0.2
2018-Jun-12 11:00N 40°39' W 074°03'3 4.8
2018-Jun-12 10:20N 40°39' W 074°07'2 5.4
2018-Jun-12 09:59N 40°39' W 074°09'4 3.9
2018-Jun-12 09:02N 40°36' W 074°12'0 0.5
2018-Jun-12 09:00N 40°36' W 074°12'0 0.0
2018-Jun-12 08:04N 40°36' W 074°12'0 0.0
2018-Jun-12 07:43N 40°36' W 074°12'0 0.0
2018-Jun-12 07:07N 40°36' W 074°12'0 0.0
2018-Jun-12 06:55N 40°36' W 074°12'3 0.4
2018-Jun-11 21:46N 40°39' W 074°10'4 9.5
2018-Jun-11 21:22N 40°39' W 074°05'3 8.3
2018-Jun-11 21:00N 40°40' W 074°01'1 2.2
2018-Jun-11 20:30N 40°40' W 074°00'0 0.0
2018-Jun-11 20:00N 40°40' W 074°00'0 0.0
2018-Jun-11 19:28N 40°40' W 074°00'0 0.0
2018-Jun-11 19:00N 40°40' W 074°00'0 0.0
2018-Jun-11 18:30N 40°40' W 074°00'1 1.9
2018-Jun-11 17:59N 40°40' W 074°01'4 7.2
2018-Jun-11 17:25N 40°39' W 074°06'1 1.8
2018-Jun-11 16:59N 40°39' W 074°05'1 1.6
2018-Jun-11 16:30N 40°39' W 074°04'2 3.1
2018-Jun-11 15:59N 40°40' W 074°03'3 1.3
2018-Jun-11 13:33N 40°39' W 074°07'1 8.1
2018-Jun-11 13:26N 40°39' W 074°05'0 0.4
2018-Jun-11 12:58N 40°39' W 074°05'3 6.2
2018-Jun-11 12:30N 40°41' W 074°08'1 1.1
2018-Jun-11 11:59N 40°41' W 074°09'1 2.0
2018-Jun-11 11:29N 40°40' W 074°08'2 2.7
2018-Jun-11 10:50N 40°39' W 074°07'2 6.7
2018-Jun-11 10:30N 40°40' W 074°04'1 2.2
2018-Jun-11 09:59N 40°40' W 074°03'1 2.4
2018-Jun-11 09:29N 40°40' W 074°04'0 0.0
2018-Jun-11 09:00N 40°40' W 074°04'3 6.1
2018-Jun-11 08:29N 40°39' W 074°08'3 0.6
2018-Jun-11 03:45N 40°38' W 074°12'2 1.9
2018-Jun-11 02:43N 40°36' W 074°12'2 9.5
2018-Jun-11 02:29N 40°38' W 074°12'4 9.1
2018-Jun-11 02:00N 40°39' W 074°06'4 8.3
2018-Jun-11 01:31N 40°40' W 074°01'0 0.2
2018-Jun-11 01:00N 40°40' W 074°01'0 0.0
2018-Jun-11 00:30N 40°40' W 074°01'0 0.7
2018-Jun-11 00:00N 40°40' W 074°01'0 0.4
2018-Jun-10 23:30N 40°40' W 074°01'3 5.2
2018-Jun-10 23:00N 40°42' W 073°60'3 6.7
2018-Jun-10 22:30N 40°45' W 073°58'55 3.4
2018-Jun-10 06:10N 41°14' W 072°55'2 7.1
2018-Jun-10 05:56N 41°13' W 072°54'3 6.4
2018-Jun-10 05:30N 41°11' W 072°57'4 7.1
2018-Jun-10 05:00N 41°09' W 073°01'49 7.6
2018-Jun-09 22:35N 40°46' W 073°57'1 9.0
2018-Jun-09 22:30N 40°45' W 073°58'4 7.9
2018-Jun-09 22:00N 40°42' W 074°00'4 8.8
2018-Jun-09 21:30N 40°39' W 074°05'4 7.6
2018-Jun-09 21:00N 40°39' W 074°10'1 0.2
2018-Jun-09 17:08N 40°39' W 074°11'1 9.8
2018-Jun-09 16:59N 40°39' W 074°09'3 4.6
2018-Jun-09 16:26N 40°41' W 074°09'0 0.0
2018-Jun-09 15:59N 40°41' W 074°09'0 0.3
2018-Jun-09 14:22N 40°41' W 074°09'2 6.7
2018-Jun-09 14:00N 40°39' W 074°08'2 3.5
2018-Jun-09 13:30N 40°39' W 074°06'5 9.2
2018-Jun-09 13:00N 40°40' W 074°00'1 2.7
2018-Jun-09 12:30N 40°39' W 074°02'4 6.9
2018-Jun-09 11:59N 40°39' W 074°06'0 0.9
2018-Jun-09 11:30N 40°39' W 074°07'0 0.0
2018-Jun-09 11:00N 40°39' W 074°07'0 0.0
2018-Jun-09 10:30N 40°39' W 074°07'0 0.0
2018-Jun-09 10:00N 40°39' W 074°07'0 0.0
2018-Jun-09 09:30N 40°39' W 074°07'0 0.0
2018-Jun-09 09:00N 40°39' W 074°07'0 0.0
2018-Jun-09 08:30N 40°39' W 074°07'1 2.6
2018-Jun-09 08:00N 40°39' W 074°05'4 8.3
2018-Jun-09 07:30N 40°40' W 074°00'0 0.0
2018-Jun-09 07:00N 40°40' W 074°00'0 0.0
2018-Jun-09 06:30N 40°40' W 074°00'0 0.0
2018-Jun-09 06:00N 40°40' W 074°00'0 0.0
2018-Jun-09 05:30N 40°40' W 074°00'0 0.0
2018-Jun-09 05:00N 40°40' W 074°00'0 0.0
2018-Jun-09 04:30N 40°40' W 074°00'0 0.0
2018-Jun-09 04:00N 40°40' W 074°00'0 0.0
2018-Jun-09 03:30N 40°40' W 074°00'1 2.8
2018-Jun-09 03:00N 40°41' W 074°00'1 2.0
2018-Jun-09 02:30N 40°42' W 073°60'  
Track history (hours):
 
Tides and Currents Weather Stations Pressure Air Temp Water Temp Dewpoint Dewpoint Depression Visibility Wind Speed Wind Dir Waves Ship Positions

Kings Point

Owner: Vane Line Bunkering, Inc., Philadelphia, PA. More information available from US FCC via Universal Licensing System and Coast Guard Vessel Documentation Center.

Last reported at 2018-Jun-18 08:24 UTC. Time now 2018-Jun-18 09:28 UTC.
Position N 40°53' W 073°43'.

Length 33 m; draft 4 m.

Type: Tug. MMSI: 338329000.

Date/timePositionNaut miles runAvg speedWind from/ knotsBaromVisibWave heightAir tempDewpointWater temp
2018-Jun-18 08:24N 40°53' W 073°43'11 6.0
2018-Jun-18 06:36N 40°47' W 073°55'2 6.3
2018-Jun-18 06:18N 40°46' W 073°57'2 7.3
2018-Jun-18 06:01N 40°44' W 073°58'4 7.8
2018-Jun-18 05:31N 40°41' W 074°02'4 7.8
2018-Jun-18 05:01N 40°39' W 074°06'3 5.2
2018-Jun-18 04:29N 40°39' W 074°10'2 0.4
2018-Jun-18 00:01N 40°38' W 074°12'0 7.7
2018-Jun-18 00:00N 40°38' W 074°12'510.0
2018-Jun-17 23:30N 40°39' W 074°05'4 8.1
2018-Jun-17 23:01N 40°40' W 074°00'0 0.0
2018-Jun-17 22:29N 40°40' W 074°00'0 0.0
2018-Jun-17 22:00N 40°40' W 074°00'0 0.0
2018-Jun-17 21:31N 40°40' W 074°00'0 0.6
2018-Jun-17 21:01N 40°40' W 074°01'2 4.4
2018-Jun-17 20:30N 40°39' W 074°03'5 8.7
2018-Jun-17 19:58N 40°39' W 074°09'2 2.6
2018-Jun-17 19:22N 40°40' W 074°08'0 0.0
2018-Jun-17 18:58N 40°40' W 074°08'0 0.0
2018-Jun-17 18:29N 40°40' W 074°08'1 1.4
2018-Jun-17 17:59N 40°40' W 074°09'0 0.0
2018-Jun-17 17:29N 40°40' W 074°09'0 0.0
2018-Jun-17 17:01N 40°40' W 074°09'0 0.0
2018-Jun-17 16:30N 40°40' W 074°09'0 0.0
2018-Jun-17 16:00N 40°40' W 074°09'1 0.6
2018-Jun-17 14:07N 40°39' W 074°08'1 9.9
2018-Jun-17 13:58N 40°39' W 074°07'4 8.8
2018-Jun-17 13:30N 40°41' W 074°02'4 6.4
2018-Jun-17 12:57N 40°43' W 073°58'3 0.1
2018-Jun-16 16:14N 40°46' W 073°57'2 8.3
2018-Jun-16 16:00N 40°44' W 073°58'4 8.3
2018-Jun-16 15:31N 40°41' W 074°02'4 7.7
2018-Jun-16 15:01N 40°39' W 074°06'3 6.6
2018-Jun-16 14:30N 40°39' W 074°10'2 0.4
2018-Jun-16 10:04N 40°38' W 074°12'0 0.0
2018-Jun-16 10:01N 40°38' W 074°12'0 0.0
2018-Jun-16 09:30N 40°38' W 074°12'0 0.0
2018-Jun-16 08:58N 40°38' W 074°12'0 0.0
2018-Jun-16 08:20N 40°38' W 074°12'0 0.0
2018-Jun-16 07:48N 40°38' W 074°12'0 0.0
2018-Jun-16 06:59N 40°38' W 074°12'0 0.0
2018-Jun-16 06:30N 40°38' W 074°12'0 0.0
2018-Jun-16 06:00N 40°38' W 074°12'0 0.0
2018-Jun-16 05:29N 40°38' W 074°12'0 0.0
2018-Jun-16 04:51N 40°38' W 074°12'1 0.8
2018-Jun-16 03:46N 40°38' W 074°12'2 7.2
2018-Jun-16 03:30N 40°39' W 074°09'4 7.7
2018-Jun-16 03:00N 40°40' W 074°04'3 6.6
2018-Jun-16 02:31N 40°42' W 074°01'3 5.6
2018-Jun-16 02:01N 40°44' W 073°58'2 0.1
2018-Jun-15 03:07N 40°46' W 073°57'1 8.6
2018-Jun-15 03:01N 40°45' W 073°58'4 7.1
2018-Jun-15 02:31N 40°42' W 074°00'4 8.3
2018-Jun-15 02:00N 40°39' W 074°04'4 7.5
2018-Jun-15 01:31N 40°39' W 074°09'3 6.3
2018-Jun-15 00:59N 40°36' W 074°12'1 2.5
2018-Jun-15 00:28N 40°38' W 074°12'0 0.0
2018-Jun-14 23:32N 40°38' W 074°12'0 0.1
2018-Jun-14 23:28N 40°38' W 074°12'0 0.0
2018-Jun-14 22:59N 40°38' W 074°12'0 0.0
2018-Jun-14 22:30N 40°38' W 074°12'0 0.0
2018-Jun-14 21:57N 40°38' W 074°12'0 0.0
2018-Jun-14 20:56N 40°38' W 074°12'0 0.0
2018-Jun-14 20:30N 40°38' W 074°12'0 0.0
2018-Jun-14 19:59N 40°38' W 074°12'0 0.0
2018-Jun-14 19:31N 40°38' W 074°12'0 0.0
2018-Jun-14 18:59N 40°38' W 074°12'2 3.5
2018-Jun-14 18:29N 40°39' W 074°10'2 4.1
2018-Jun-14 17:57N 40°41' W 074°09'0 0.0
2018-Jun-14 17:28N 40°41' W 074°09'1 1.4
2018-Jun-14 17:01N 40°40' W 074°08'2 3.2
2018-Jun-14 16:29N 40°39' W 074°07'1 1.2
2018-Jun-14 16:00N 40°39' W 074°06'0 0.1
2018-Jun-14 15:29N 40°39' W 074°06'0 0.5
2018-Jun-14 15:01N 40°39' W 074°06'0 0.0
2018-Jun-14 14:31N 40°39' W 074°06'0 0.0
2018-Jun-14 14:01N 40°39' W 074°06'0 0.0
2018-Jun-14 13:30N 40°39' W 074°06'0 0.0
2018-Jun-14 13:00N 40°39' W 074°06'0 0.0
2018-Jun-14 12:30N 40°39' W 074°06'2 3.3
2018-Jun-14 12:00N 40°39' W 074°08'4 7.4
2018-Jun-14 11:30N 40°37' W 074°12'1 0.5
2018-Jun-14 10:17N 40°37' W 074°12'1 4.7
2018-Jun-14 10:00N 40°39' W 074°11'4 6.9
2018-Jun-14 09:29N 40°39' W 074°07'1 2.7
2018-Jun-14 09:01N 40°39' W 074°05'0 0.0
2018-Jun-14 08:30N 40°39' W 074°05'0 0.0
2018-Jun-14 07:58N 40°39' W 074°05'0 0.0
2018-Jun-14 07:30N 40°39' W 074°05'0 0.0
2018-Jun-14 07:01N 40°39' W 074°05'1 1.8
2018-Jun-14 06:31N 40°40' W 074°04'1 2.5
2018-Jun-14 06:00N 40°39' W 074°05'1 2.5
2018-Jun-14 05:31N 40°40' W 074°05'0 0.5
2018-Jun-14 05:00N 40°40' W 074°05'0 0.0
2018-Jun-14 04:30N 40°40' W 074°05'0 0.0
2018-Jun-14 04:01N 40°40' W 074°05'0 0.0
2018-Jun-14 03:30N 40°40' W 074°05'0 0.0
2018-Jun-14 03:00N 40°40' W 074°05'0 0.0
2018-Jun-14 02:30N 40°40' W 074°05'0 0.0
2018-Jun-14 02:01N 40°40' W 074°05'0 0.0
2018-Jun-14 01:31N 40°40' W 074°05'0 0.0
2018-Jun-14 01:00N 40°40' W 074°05'0 0.0
2018-Jun-14 00:31N 40°40' W 074°05'0 0.0
2018-Jun-14 00:00N 40°40' W 074°05'0 0.0
2018-Jun-13 23:31N 40°40' W 074°05'0 0.5
2018-Jun-13 23:00N 40°40' W 074°05'1 1.7
2018-Jun-13 22:31N 40°39' W 074°04'0 0.9
2018-Jun-13 22:00N 40°39' W 074°05'1 2.0
2018-Jun-13 21:30N 40°40' W 074°05'0 0.0
2018-Jun-13 21:01N 40°40' W 074°05'0 0.0
2018-Jun-13 20:31N 40°40' W 074°05'0 0.0
2018-Jun-13 20:01N 40°40' W 074°05'0 0.0
2018-Jun-13 19:30N 40°40' W 074°05'0 0.0
2018-Jun-13 19:00N 40°40' W 074°05'0 0.0
2018-Jun-13 18:31N 40°40' W 074°05'0 0.0
2018-Jun-13 18:01N 40°40' W 074°05'1 1.8
2018-Jun-13 17:31N 40°39' W 074°05'1 1.4
2018-Jun-13 17:01N 40°39' W 074°04'3 6.0
2018-Jun-13 16:31N 40°40' W 074°01'0 0.2
2018-Jun-13 16:01N 40°40' W 074°00'2 3.3
2018-Jun-13 15:30N 40°39' W 074°02'2 4.9
2018-Jun-13 15:00N 40°39' W 074°05'3 5.6
2018-Jun-13 14:30N 40°41' W 074°02'4 8.4
2018-Jun-13 14:00N 40°39' W 074°07'2 3.6
2018-Jun-13 13:29N 40°40' W 074°08'0 0.1
2018-Jun-13 13:01N 40°40' W 074°08'3 5.2
2018-Jun-13 12:30N 40°39' W 074°05'4 8.3
2018-Jun-13 12:01N 40°40' W 074°00'0 0.6
2018-Jun-13 11:31N 40°40' W 074°01'1 1.0
2018-Jun-13 11:01N 40°40' W 074°01'3 6.2
2018-Jun-13 10:30N 40°43' W 073°59'3 6.5
2018-Jun-13 10:01N 40°46' W 073°57'0 0.0
2018-Jun-12 12:37N 40°46' W 073°57'1 5.7
2018-Jun-12 12:30N 40°45' W 073°58'4 7.9
2018-Jun-12 12:00N 40°42' W 074°00'4 7.0
2018-Jun-12 11:30N 40°39' W 074°03'0 0.2
2018-Jun-12 11:00N 40°39' W 074°03'3 4.8
2018-Jun-12 10:20N 40°39' W 074°07'2 5.4
2018-Jun-12 09:59N 40°39' W 074°09'4 3.9
2018-Jun-12 09:02N 40°36' W 074°12'0 0.5
2018-Jun-12 09:00N 40°36' W 074°12'0 0.0
2018-Jun-12 08:04N 40°36' W 074°12'0 0.0
2018-Jun-12 07:43N 40°36' W 074°12'0 0.0
2018-Jun-12 07:07N 40°36' W 074°12'0 0.0
2018-Jun-12 06:55N 40°36' W 074°12'3 0.4
2018-Jun-11 21:46N 40°39' W 074°10'4 9.5
2018-Jun-11 21:22N 40°39' W 074°05'3 8.3
2018-Jun-11 21:00N 40°40' W 074°01'1 2.2
2018-Jun-11 20:30N 40°40' W 074°00'0 0.0
2018-Jun-11 20:00N 40°40' W 074°00'0 0.0
2018-Jun-11 19:28N 40°40' W 074°00'0 0.0
2018-Jun-11 19:00N 40°40' W 074°00'0 0.0
2018-Jun-11 18:30N 40°40' W 074°00'1 1.9
2018-Jun-11 17:59N 40°40' W 074°01'4 7.2
2018-Jun-11 17:25N 40°39' W 074°06'1 1.8
2018-Jun-11 16:59N 40°39' W 074°05'1 1.6
2018-Jun-11 16:30N 40°39' W 074°04'2 3.1
2018-Jun-11 15:59N 40°40' W 074°03'3 1.3
2018-Jun-11 13:33N 40°39' W 074°07'1 8.1
2018-Jun-11 13:26N 40°39' W 074°05'0 0.4
2018-Jun-11 12:58N 40°39' W 074°05'3 6.2
2018-Jun-11 12:30N 40°41' W 074°08'1 1.1
2018-Jun-11 11:59N 40°41' W 074°09'1 2.0
2018-Jun-11 11:29N 40°40' W 074°08'2 2.7
2018-Jun-11 10:50N 40°39' W 074°07'2 6.7
2018-Jun-11 10:30N 40°40' W 074°04'1 2.2
2018-Jun-11 09:59N 40°40' W 074°03'1 2.4
2018-Jun-11 09:29N 40°40' W 074°04'0 0.0
2018-Jun-11 09:00N 40°40' W 074°04'3 6.1
2018-Jun-11 08:29N 40°39' W 074°08'3 0.6
2018-Jun-11 03:45N 40°38' W 074°12'2 1.9
2018-Jun-11 02:43N 40°36' W 074°12'2 9.5
2018-Jun-11 02:29N 40°38' W 074°12'4 9.1
2018-Jun-11 02:00N 40°39' W 074°06'4 8.3
2018-Jun-11 01:31N 40°40' W 074°01'0 0.2
2018-Jun-11 01:00N 40°40' W 074°01'0 0.0
2018-Jun-11 00:30N 40°40' W 074°01'0 0.7
2018-Jun-11 00:00N 40°40' W 074°01'0 0.4
2018-Jun-10 23:30N 40°40' W 074°01'3 5.2
2018-Jun-10 23:00N 40°42' W 073°60'3 6.7
2018-Jun-10 22:30N 40°45' W 073°58'55 3.4
2018-Jun-10 06:10N 41°14' W 072°55'2 7.1
2018-Jun-10 05:56N 41°13' W 072°54'3 6.4
2018-Jun-10 05:30N 41°11' W 072°57'4 7.1
2018-Jun-10 05:00N 41°09' W 073°01'49 7.6
2018-Jun-09 22:35N 40°46' W 073°57'1 9.0
2018-Jun-09 22:30N 40°45' W 073°58'4 7.9
2018-Jun-09 22:00N 40°42' W 074°00'4 8.8
2018-Jun-09 21:30N 40°39' W 074°05'4 7.6
2018-Jun-09 21:00N 40°39' W 074°10'1 0.2
2018-Jun-09 17:08N 40°39' W 074°11'1 9.8
2018-Jun-09 16:59N 40°39' W 074°09'3 4.6
2018-Jun-09 16:26N 40°41' W 074°09'0 0.0
2018-Jun-09 15:59N 40°41' W 074°09'0 0.3
2018-Jun-09 14:22N 40°41' W 074°09'2 6.7
2018-Jun-09 14:00N 40°39' W 074°08'2 3.5
2018-Jun-09 13:30N 40°39' W 074°06'5 9.2
2018-Jun-09 13:00N 40°40' W 074°00'1 2.7
2018-Jun-09 12:30N 40°39' W 074°02'4 6.9
2018-Jun-09 11:59N 40°39' W 074°06'0 0.9
2018-Jun-09 11:30N 40°39' W 074°07'0 0.0
2018-Jun-09 11:00N 40°39' W 074°07'0 0.0
2018-Jun-09 10:30N 40°39' W 074°07'0 0.0
2018-Jun-09 10:00N 40°39' W 074°07'0 0.0
2018-Jun-09 09:30N 40°39' W 074°07'0 0.0
2018-Jun-09 09:00N 40°39' W 074°07'0 0.0
2018-Jun-09 08:30N 40°39' W 074°07'1 2.6
2018-Jun-09 08:00N 40°39' W 074°05'4 8.3
2018-Jun-09 07:30N 40°40' W 074°00'0 0.0
2018-Jun-09 07:00N 40°40' W 074°00'0 0.0
2018-Jun-09 06:30N 40°40' W 074°00'0 0.0
2018-Jun-09 06:00N 40°40' W 074°00'0 0.0
2018-Jun-09 05:30N 40°40' W 074°00'0 0.0
2018-Jun-09 05:00N 40°40' W 074°00'0 0.0
2018-Jun-09 04:30N 40°40' W 074°00'0 0.0
2018-Jun-09 04:00N 40°40' W 074°00'0 0.0
2018-Jun-09 03:30N 40°40' W 074°00'1 2.8
2018-Jun-09 03:00N 40°41' W 074°00'1 2.0
2018-Jun-09 02:30N 40°42' W 073°60'  

Dump ship's entire track history